sensor_id;sensor_type;location;lat;lon;timestamp;P1;P2;P0
40371;PMS5003;28564;53.346;-6.554;2023-11-22T00:01:11;5;4;
40371;PMS5003;28564;53.346;-6.554;2023-11-22T00:03:39;3;3;
40371;PMS5003;28564;53.346;-6.554;2023-11-22T00:06:06;5;4;
40371;PMS5003;28564;53.346;-6.554;2023-11-22T00:08:34;3;3;
40371;PMS5003;28564;53.346;-6.554;2023-11-22T00:11:02;3;3;
40371;PMS5003;28564;53.346;-6.554;2023-11-22T00:13:29;4;4;
40371;PMS5003;28564;53.346;-6.554;2023-11-22T00:15:56;3;3;
40371;PMS5003;28564;53.346;-6.554;2023-11-22T00:18:24;3;3;
40371;PMS5003;28564;53.346;-6.554;2023-11-22T00:20:51;5;4;
40371;PMS5003;28564;53.346;-6.554;2023-11-22T00:23:18;3;3;
40371;PMS5003;28564;53.346;-6.554;2023-11-22T00:25:45;3;3;
40371;PMS5003;28564;53.346;-6.554;2023-11-22T00:28:12;9;6;
40371;PMS5003;28564;53.346;-6.554;2023-11-22T00:30:39;8;5;
40371;PMS5003;28564;53.346;-6.554;2023-11-22T00:33:06;3;3;
40371;PMS5003;28564;53.346;-6.554;2023-11-22T00:35:34;2;2;
40371;PMS5003;28564;53.346;-6.554;2023-11-22T00:38:01;6;3;
40371;PMS5003;28564;53.346;-6.554;2023-11-22T00:40:28;5;4;
40371;PMS5003;28564;53.346;-6.554;2023-11-22T00:42:55;3;3;
40371;PMS5003;28564;53.346;-6.554;2023-11-22T00:45:22;2;2;
40371;PMS5003;28564;53.346;-6.554;2023-11-22T00:47:50;9;4;
40371;PMS5003;28564;53.346;-6.554;2023-11-22T00:50:17;8;4;
40371;PMS5003;28564;53.346;-6.554;2023-11-22T00:52:44;9;6;
40371;PMS5003;28564;53.346;-6.554;2023-11-22T00:55:11;4;2;
40371;PMS5003;28564;53.346;-6.554;2023-11-22T00:57:38;6;3;
40371;PMS5003;28564;53.346;-6.554;2023-11-22T01:00:06;4;3;
40371;PMS5003;28564;53.346;-6.554;2023-11-22T01:02:35;8;3;
40371;PMS5003;28564;53.346;-6.554;2023-11-22T01:05:02;6;5;
40371;PMS5003;28564;53.346;-6.554;2023-11-22T01:07:30;6;3;
40371;PMS5003;28564;53.346;-6.554;2023-11-22T01:09:57;5;4;
40371;PMS5003;28564;53.346;-6.554;2023-11-22T01:12:24;7;5;
40371;PMS5003;28564;53.346;-6.554;2023-11-22T01:14:51;4;4;
40371;PMS5003;28564;53.346;-6.554;2023-11-22T01:17:18;5;4;
40371;PMS5003;28564;53.346;-6.554;2023-11-22T01:19:45;5;4;
40371;PMS5003;28564;53.346;-6.554;2023-11-22T01:22:13;6;4;
40371;PMS5003;28564;53.346;-6.554;2023-11-22T01:24:40;4;4;
40371;PMS5003;28564;53.346;-6.554;2023-11-22T01:27:07;7;3;
40371;PMS5003;28564;53.346;-6.554;2023-11-22T01:29:34;3;3;
40371;PMS5003;28564;53.346;-6.554;2023-11-22T01:32:01;4;4;
40371;PMS5003;28564;53.346;-6.554;2023-11-22T01:34:29;6;5;
40371;PMS5003;28564;53.346;-6.554;2023-11-22T01:36:56;5;5;
40371;PMS5003;28564;53.346;-6.554;2023-11-22T01:39:23;5;4;
40371;PMS5003;28564;53.346;-6.554;2023-11-22T01:41:50;5;4;
40371;PMS5003;28564;53.346;-6.554;2023-11-22T01:44:18;6;5;
40371;PMS5003;28564;53.346;-6.554;2023-11-22T01:46:45;4;4;
40371;PMS5003;28564;53.346;-6.554;2023-11-22T01:49:13;5;5;
40371;PMS5003;28564;53.346;-6.554;2023-11-22T01:51:40;6;4;
40371;PMS5003;28564;53.346;-6.554;2023-11-22T01:54:08;5;4;
40371;PMS5003;28564;53.346;-6.554;2023-11-22T01:56:35;2;2;
40371;PMS5003;28564;53.346;-6.554;2023-11-22T01:59:05;5;5;
40371;PMS5003;28564;53.346;-6.554;2023-11-22T02:01:32;3;3;
40371;PMS5003;28564;53.346;-6.554;2023-11-22T02:03:59;4;4;
40371;PMS5003;28564;53.346;-6.554;2023-11-22T02:06:27;3;3;
40371;PMS5003;28564;53.346;-6.554;2023-11-22T02:08:55;4;4;
40371;PMS5003;28564;53.346;-6.554;2023-11-22T02:11:22;8;6;
40371;PMS5003;28564;53.346;-6.554;2023-11-22T02:13:49;4;4;
40371;PMS5003;28564;53.346;-6.554;2023-11-22T02:16:18;3;3;
40371;PMS5003;28564;53.346;-6.554;2023-11-22T02:18:46;4;4;
40371;PMS5003;28564;53.346;-6.554;2023-11-22T02:21:15;3;3;
40371;PMS5003;28564;53.346;-6.554;2023-11-22T02:23:43;3;3;
40371;PMS5003;28564;53.346;-6.554;2023-11-22T02:26:11;3;3;
40371;PMS5003;28564;53.346;-6.554;2023-11-22T02:28:39;3;3;
40371;PMS5003;28564;53.346;-6.554;2023-11-22T02:31:06;5;4;
40371;PMS5003;28564;53.346;-6.554;2023-11-22T02:33:33;3;3;
40371;PMS5003;28564;53.346;-6.554;2023-11-22T02:36:00;5;4;
40371;PMS5003;28564;53.346;-6.554;2023-11-22T02:38:27;3;3;
40371;PMS5003;28564;53.346;-6.554;2023-11-22T02:40:55;3;3;
40371;PMS5003;28564;53.346;-6.554;2023-11-22T02:43:22;3;3;
40371;PMS5003;28564;53.346;-6.554;2023-11-22T02:45:49;4;3;
40371;PMS5003;28564;53.346;-6.554;2023-11-22T02:48:17;2;2;
40371;PMS5003;28564;53.346;-6.554;2023-11-22T02:50:44;4;3;
40371;PMS5003;28564;53.346;-6.554;2023-11-22T02:53:11;4;4;
40371;PMS5003;28564;53.346;-6.554;2023-11-22T02:55:39;5;3;
40371;PMS5003;28564;53.346;-6.554;2023-11-22T02:58:06;4;4;
40371;PMS5003;28564;53.346;-6.554;2023-11-22T03:00:33;5;3;
40371;PMS5003;28564;53.346;-6.554;2023-11-22T03:03:00;3;3;
40371;PMS5003;28564;53.346;-6.554;2023-11-22T03:05:27;5;4;
40371;PMS5003;28564;53.346;-6.554;2023-11-22T03:07:55;3;3;
40371;PMS5003;28564;53.346;-6.554;2023-11-22T03:10:21;3;3;
40371;PMS5003;28564;53.346;-6.554;2023-11-22T03:12:49;6;4;
40371;PMS5003;28564;53.346;-6.554;2023-11-22T03:15:16;8;5;
40371;PMS5003;28564;53.346;-6.554;2023-11-22T03:17:43;3;2;
40371;PMS5003;28564;53.346;-6.554;2023-11-22T03:20:10;3;3;
40371;PMS5003;28564;53.346;-6.554;2023-11-22T03:22:37;4;4;
40371;PMS5003;28564;53.346;-6.554;2023-11-22T03:25:05;4;4;
40371;PMS5003;28564;53.346;-6.554;2023-11-22T03:27:33;5;3;
40371;PMS5003;28564;53.346;-6.554;2023-11-22T03:30:00;4;4;
40371;PMS5003;28564;53.346;-6.554;2023-11-22T03:32:27;3;3;
40371;PMS5003;28564;53.346;-6.554;2023-11-22T03:34:54;4;4;
40371;PMS5003;28564;53.346;-6.554;2023-11-22T03:37:21;3;3;
40371;PMS5003;28564;53.346;-6.554;2023-11-22T03:39:49;2;2;
40371;PMS5003;28564;53.346;-6.554;2023-11-22T03:42:16;4;2;
40371;PMS5003;28564;53.346;-6.554;2023-11-22T03:44:44;3;3;
40371;PMS5003;28564;53.346;-6.554;2023-11-22T03:47:11;3;3;
40371;PMS5003;28564;53.346;-6.554;2023-11-22T03:49:41;4;2;
40371;PMS5003;28564;53.346;-6.554;2023-11-22T03:52:09;2;2;
40371;PMS5003;28564;53.346;-6.554;2023-11-22T03:54:37;2;2;
40371;PMS5003;28564;53.346;-6.554;2023-11-22T03:57:04;3;2;
40371;PMS5003;28564;53.346;-6.554;2023-11-22T03:59:31;1;1;
40371;PMS5003;28564;53.346;-6.554;2023-11-22T04:02:00;3;3;
40371;PMS5003;28564;53.346;-6.554;2023-11-22T04:04:27;2;2;
40371;PMS5003;28564;53.346;-6.554;2023-11-22T04:06:55;3;3;
40371;PMS5003;28564;53.346;-6.554;2023-11-22T04:09:22;2;2;
40371;PMS5003;28564;53.346;-6.554;2023-11-22T04:11:49;2;1;
40371;PMS5003;28564;53.346;-6.554;2023-11-22T04:14:16;5;3;
40371;PMS5003;28564;53.346;-6.554;2023-11-22T04:16:43;3;3;
40371;PMS5003;28564;53.346;-6.554;2023-11-22T04:19:10;3;3;
40371;PMS5003;28564;53.346;-6.554;2023-11-22T04:21:38;3;3;
40371;PMS5003;28564;53.346;-6.554;2023-11-22T04:24:05;3;3;
40371;PMS5003;28564;53.346;-6.554;2023-11-22T04:26:34;3;3;
40371;PMS5003;28564;53.346;-6.554;2023-11-22T04:29:01;3;3;
40371;PMS5003;28564;53.346;-6.554;2023-11-22T04:31:28;4;4;
40371;PMS5003;28564;53.346;-6.554;2023-11-22T04:33:55;2;2;
40371;PMS5003;28564;53.346;-6.554;2023-11-22T04:36:22;3;2;
40371;PMS5003;28564;53.346;-6.554;2023-11-22T04:38:50;3;2;
40371;PMS5003;28564;53.346;-6.554;2023-11-22T04:41:17;2;2;
40371;PMS5003;28564;53.346;-6.554;2023-11-22T04:43:44;2;2;
40371;PMS5003;28564;53.346;-6.554;2023-11-22T04:46:11;1;1;
40371;PMS5003;28564;53.346;-6.554;2023-11-22T04:48:38;2;2;
40371;PMS5003;28564;53.346;-6.554;2023-11-22T04:51:06;1;1;
40371;PMS5003;28564;53.346;-6.554;2023-11-22T04:53:33;2;2;
40371;PMS5003;28564;53.346;-6.554;2023-11-22T04:56:00;1;1;
40371;PMS5003;28564;53.346;-6.554;2023-11-22T04:58:27;1;1;
40371;PMS5003;28564;53.346;-6.554;2023-11-22T05:00:54;2;2;
40371;PMS5003;28564;53.346;-6.554;2023-11-22T05:03:23;1;1;
40371;PMS5003;28564;53.346;-6.554;2023-11-22T05:05:50;1;1;
40371;PMS5003;28564;53.346;-6.554;2023-11-22T05:08:18;3;1;
40371;PMS5003;28564;53.346;-6.554;2023-11-22T05:10:45;0;0;
40371;PMS5003;28564;53.346;-6.554;2023-11-22T05:13:12;1;1;
40371;PMS5003;28564;53.346;-6.554;2023-11-22T05:15:39;1;1;
40371;PMS5003;28564;53.346;-6.554;2023-11-22T05:18:06;1;1;
40371;PMS5003;28564;53.346;-6.554;2023-11-22T05:20:33;1;1;
40371;PMS5003;28564;53.346;-6.554;2023-11-22T05:23:00;0;0;
40371;PMS5003;28564;53.346;-6.554;2023-11-22T05:25:27;2;1;
40371;PMS5003;28564;53.346;-6.554;2023-11-22T05:27:55;1;1;
40371;PMS5003;28564;53.346;-6.554;2023-11-22T05:30:22;1;1;
40371;PMS5003;28564;53.346;-6.554;2023-11-22T05:32:49;0;0;
40371;PMS5003;28564;53.346;-6.554;2023-11-22T05:35:17;1;1;
40371;PMS5003;28564;53.346;-6.554;2023-11-22T05:37:44;0;0;
40371;PMS5003;28564;53.346;-6.554;2023-11-22T05:40:11;2;0;
40371;PMS5003;28564;53.346;-6.554;2023-11-22T05:42:38;1;1;
40371;PMS5003;28564;53.346;-6.554;2023-11-22T05:45:06;0;0;
40371;PMS5003;28564;53.346;-6.554;2023-11-22T05:47:35;2;0;
40371;PMS5003;28564;53.346;-6.554;2023-11-22T05:50:02;2;0;
40371;PMS5003;28564;53.346;-6.554;2023-11-22T05:52:29;0;0;
40371;PMS5003;28564;53.346;-6.554;2023-11-22T05:54:56;0;0;
40371;PMS5003;28564;53.346;-6.554;2023-11-22T05:57:23;0;0;
40371;PMS5003;28564;53.346;-6.554;2023-11-22T05:59:50;1;0;
40371;PMS5003;28564;53.346;-6.554;2023-11-22T06:02:18;0;0;
40371;PMS5003;28564;53.346;-6.554;2023-11-22T06:04:45;1;1;
40371;PMS5003;28564;53.346;-6.554;2023-11-22T06:07:12;1;1;
40371;PMS5003;28564;53.346;-6.554;2023-11-22T06:09:39;1;1;
40371;PMS5003;28564;53.346;-6.554;2023-11-22T06:12:07;0;0;
40371;PMS5003;28564;53.346;-6.554;2023-11-22T06:14:34;0;0;
40371;PMS5003;28564;53.346;-6.554;2023-11-22T06:17:01;0;0;
40371;PMS5003;28564;53.346;-6.554;2023-11-22T06:19:29;0;0;
40371;PMS5003;28564;53.346;-6.554;2023-11-22T06:21:56;3;1;
40371;PMS5003;28564;53.346;-6.554;2023-11-22T06:24:23;0;0;
40371;PMS5003;28564;53.346;-6.554;2023-11-22T06:26:50;2;1;
40371;PMS5003;28564;53.346;-6.554;2023-11-22T06:29:17;6;1;
40371;PMS5003;28564;53.346;-6.554;2023-11-22T06:31:45;3;1;
40371;PMS5003;28564;53.346;-6.554;2023-11-22T06:34:12;0;0;
40371;PMS5003;28564;53.346;-6.554;2023-11-22T06:36:40;0;0;
40371;PMS5003;28564;53.346;-6.554;2023-11-22T06:39:07;1;1;
40371;PMS5003;28564;53.346;-6.554;2023-11-22T06:41:34;1;1;
40371;PMS5003;28564;53.346;-6.554;2023-11-22T06:44:01;0;0;
40371;PMS5003;28564;53.346;-6.554;2023-11-22T06:46:28;2;1;
40371;PMS5003;28564;53.346;-6.554;2023-11-22T06:48:55;0;0;
40371;PMS5003;28564;53.346;-6.554;2023-11-22T06:51:23;1;0;
40371;PMS5003;28564;53.346;-6.554;2023-11-22T06:53:50;2;1;
40371;PMS5003;28564;53.346;-6.554;2023-11-22T06:56:17;0;0;
40371;PMS5003;28564;53.346;-6.554;2023-11-22T06:58:44;0;0;
40371;PMS5003;28564;53.346;-6.554;2023-11-22T07:01:12;0;0;
40371;PMS5003;28564;53.346;-6.554;2023-11-22T07:03:39;3;1;
40371;PMS5003;28564;53.346;-6.554;2023-11-22T07:06:07;2;1;
40371;PMS5003;28564;53.346;-6.554;2023-11-22T07:08:34;3;2;
40371;PMS5003;28564;53.346;-6.554;2023-11-22T07:11:01;2;1;
40371;PMS5003;28564;53.346;-6.554;2023-11-22T07:13:29;2;0;
40371;PMS5003;28564;53.346;-6.554;2023-11-22T07:15:56;2;1;
40371;PMS5003;28564;53.346;-6.554;2023-11-22T07:18:23;0;0;
40371;PMS5003;28564;53.346;-6.554;2023-11-22T07:20:50;2;0;
40371;PMS5003;28564;53.346;-6.554;2023-11-22T07:23:17;1;1;
40371;PMS5003;28564;53.346;-6.554;2023-11-22T07:25:44;3;2;
40371;PMS5003;28564;53.346;-6.554;2023-11-22T07:28:12;1;1;
40371;PMS5003;28564;53.346;-6.554;2023-11-22T07:30:39;2;2;
40371;PMS5003;28564;53.346;-6.554;2023-11-22T07:33:06;1;1;
40371;PMS5003;28564;53.346;-6.554;2023-11-22T07:35:33;2;1;
40371;PMS5003;28564;53.346;-6.554;2023-11-22T07:38:00;0;0;
40371;PMS5003;28564;53.346;-6.554;2023-11-22T07:40:27;1;1;
40371;PMS5003;28564;53.346;-6.554;2023-11-22T07:42:54;2;1;
40371;PMS5003;28564;53.346;-6.554;2023-11-22T07:45:22;1;1;
40371;PMS5003;28564;53.346;-6.554;2023-11-22T07:47:49;2;2;
40371;PMS5003;28564;53.346;-6.554;2023-11-22T07:50:16;1;1;
40371;PMS5003;28564;53.346;-6.554;2023-11-22T07:52:43;1;1;
40371;PMS5003;28564;53.346;-6.554;2023-11-22T07:55:10;2;0;
40371;PMS5003;28564;53.346;-6.554;2023-11-22T07:57:37;2;0;
40371;PMS5003;28564;53.346;-6.554;2023-11-22T08:00:05;3;1;
40371;PMS5003;28564;53.346;-6.554;2023-11-22T08:02:34;0;0;
40371;PMS5003;28564;53.346;-6.554;2023-11-22T08:05:01;1;1;
40371;PMS5003;28564;53.346;-6.554;2023-11-22T08:07:29;1;1;
40371;PMS5003;28564;53.346;-6.554;2023-11-22T08:09:56;1;1;
40371;PMS5003;28564;53.346;-6.554;2023-11-22T08:12:23;0;0;
40371;PMS5003;28564;53.346;-6.554;2023-11-22T08:14:50;1;1;
40371;PMS5003;28564;53.346;-6.554;2023-11-22T08:17:17;1;1;
40371;PMS5003;28564;53.346;-6.554;2023-11-22T08:19:45;1;1;
40371;PMS5003;28564;53.346;-6.554;2023-11-22T08:22:12;0;0;
40371;PMS5003;28564;53.346;-6.554;2023-11-22T08:24:40;3;2;
40371;PMS5003;28564;53.346;-6.554;2023-11-22T08:27:07;0;0;
40371;PMS5003;28564;53.346;-6.554;2023-11-22T08:29:34;2;0;
40371;PMS5003;28564;53.346;-6.554;2023-11-22T08:32:01;1;1;
40371;PMS5003;28564;53.346;-6.554;2023-11-22T08:34:28;3;2;
40371;PMS5003;28564;53.346;-6.554;2023-11-22T08:36:55;0;0;
40371;PMS5003;28564;53.346;-6.554;2023-11-22T08:39:22;2;1;
40371;PMS5003;28564;53.346;-6.554;2023-11-22T08:41:50;1;1;
40371;PMS5003;28564;53.346;-6.554;2023-11-22T08:44:17;4;0;
40371;PMS5003;28564;53.346;-6.554;2023-11-22T08:46:44;0;0;
40371;PMS5003;28564;53.346;-6.554;2023-11-22T08:49:11;2;0;
40371;PMS5003;28564;53.346;-6.554;2023-11-22T08:51:38;2;0;
40371;PMS5003;28564;53.346;-6.554;2023-11-22T08:54:05;1;0;
40371;PMS5003;28564;53.346;-6.554;2023-11-22T08:56:33;0;0;
40371;PMS5003;28564;53.346;-6.554;2023-11-22T08:59:00;1;1;
40371;PMS5003;28564;53.346;-6.554;2023-11-22T09:01:27;1;0;
40371;PMS5003;28564;53.346;-6.554;2023-11-22T09:03:55;1;1;
40371;PMS5003;28564;53.346;-6.554;2023-11-22T09:06:22;0;0;
40371;PMS5003;28564;53.346;-6.554;2023-11-22T09:08:49;1;1;
40371;PMS5003;28564;53.346;-6.554;2023-11-22T09:11:16;0;0;
40371;PMS5003;28564;53.346;-6.554;2023-11-22T09:13:43;0;0;
40371;PMS5003;28564;53.346;-6.554;2023-11-22T09:16:10;0;0;
40371;PMS5003;28564;53.346;-6.554;2023-11-22T09:18:37;2;1;
40371;PMS5003;28564;53.346;-6.554;2023-11-22T09:21:04;1;0;
40371;PMS5003;28564;53.346;-6.554;2023-11-22T09:23:32;0;0;
40371;PMS5003;28564;53.346;-6.554;2023-11-22T09:26:00;1;0;
40371;PMS5003;28564;53.346;-6.554;2023-11-22T09:28:27;0;0;
40371;PMS5003;28564;53.346;-6.554;2023-11-22T09:30:54;0;0;
40371;PMS5003;28564;53.346;-6.554;2023-11-22T09:33:21;1;1;
40371;PMS5003;28564;53.346;-6.554;2023-11-22T09:35:48;2;0;
40371;PMS5003;28564;53.346;-6.554;2023-11-22T09:38:15;0;0;
40371;PMS5003;28564;53.346;-6.554;2023-11-22T09:40:44;1;0;
40371;PMS5003;28564;53.346;-6.554;2023-11-22T09:43:12;1;1;
40371;PMS5003;28564;53.346;-6.554;2023-11-22T09:45:40;0;0;
40371;PMS5003;28564;53.346;-6.554;2023-11-22T09:48:12;0;0;
40371;PMS5003;28564;53.346;-6.554;2023-11-22T09:50:45;0;0;
40371;PMS5003;28564;53.346;-6.554;2023-11-22T09:53:22;1;1;
40371;PMS5003;28564;53.346;-6.554;2023-11-22T09:55:57;3;2;
40371;PMS5003;28564;53.346;-6.554;2023-11-22T09:58:24;3;1;
40371;PMS5003;28564;53.346;-6.554;2023-11-22T10:00:56;0;0;
40371;PMS5003;28564;53.346;-6.554;2023-11-22T10:03:25;0;0;
40371;PMS5003;28564;53.346;-6.554;2023-11-22T10:05:53;1;1;
40371;PMS5003;28564;53.346;-6.554;2023-11-22T10:08:22;1;1;
40371;PMS5003;28564;53.346;-6.554;2023-11-22T10:10:49;3;1;
40371;PMS5003;28564;53.346;-6.554;2023-11-22T10:13:22;2;2;
40371;PMS5003;28564;53.346;-6.554;2023-11-22T10:15:50;1;1;
40371;PMS5003;28564;53.346;-6.554;2023-11-22T10:18:19;2;1;
40371;PMS5003;28564;53.346;-6.554;2023-11-22T10:20:47;1;1;
40371;PMS5003;28564;53.346;-6.554;2023-11-22T10:23:16;0;0;
40371;PMS5003;28564;53.346;-6.554;2023-11-22T10:25:45;0;0;
40371;PMS5003;28564;53.346;-6.554;2023-11-22T10:28:13;1;1;
40371;PMS5003;28564;53.346;-6.554;2023-11-22T10:30:41;0;0;
40371;PMS5003;28564;53.346;-6.554;2023-11-22T10:33:09;3;1;
40371;PMS5003;28564;53.346;-6.554;2023-11-22T10:35:38;1;1;
40371;PMS5003;28564;53.346;-6.554;2023-11-22T10:38:17;0;0;
40371;PMS5003;28564;53.346;-6.554;2023-11-22T10:40:46;1;0;
40371;PMS5003;28564;53.346;-6.554;2023-11-22T10:43:14;0;0;
40371;PMS5003;28564;53.346;-6.554;2023-11-22T10:45:43;3;1;
40371;PMS5003;28564;53.346;-6.554;2023-11-22T10:48:11;1;1;
40371;PMS5003;28564;53.346;-6.554;2023-11-22T10:50:41;1;0;
40371;PMS5003;28564;53.346;-6.554;2023-11-22T10:53:08;0;0;
40371;PMS5003;28564;53.346;-6.554;2023-11-22T10:55:41;0;0;
40371;PMS5003;28564;53.346;-6.554;2023-11-22T10:58:11;1;1;
40371;PMS5003;28564;53.346;-6.554;2023-11-22T11:00:41;0;0;
40371;PMS5003;28564;53.346;-6.554;2023-11-22T11:03:11;1;1;
40371;PMS5003;28564;53.346;-6.554;2023-11-22T11:05:45;1;1;
40371;PMS5003;28564;53.346;-6.554;2023-11-22T11:08:17;2;1;
40371;PMS5003;28564;53.346;-6.554;2023-11-22T11:10:45;1;1;
40371;PMS5003;28564;53.346;-6.554;2023-11-22T11:13:13;0;0;
40371;PMS5003;28564;53.346;-6.554;2023-11-22T11:15:42;0;0;
40371;PMS5003;28564;53.346;-6.554;2023-11-22T11:18:10;2;1;
40371;PMS5003;28564;53.346;-6.554;2023-11-22T11:20:45;0;0;
40371;PMS5003;28564;53.346;-6.554;2023-11-22T11:23:13;0;0;
40371;PMS5003;28564;53.346;-6.554;2023-11-22T11:25:41;0;0;
40371;PMS5003;28564;53.346;-6.554;2023-11-22T11:28:10;0;0;
40371;PMS5003;28564;53.346;-6.554;2023-11-22T11:30:42;0;0;
40371;PMS5003;28564;53.346;-6.554;2023-11-22T11:33:11;1;0;
40371;PMS5003;28564;53.346;-6.554;2023-11-22T11:35:41;1;1;
40371;PMS5003;28564;53.346;-6.554;2023-11-22T11:38:16;1;1;
40371;PMS5003;28564;53.346;-6.554;2023-11-22T11:40:48;1;1;
40371;PMS5003;28564;53.346;-6.554;2023-11-22T11:43:20;1;1;
40371;PMS5003;28564;53.346;-6.554;2023-11-22T11:45:48;1;1;
40371;PMS5003;28564;53.346;-6.554;2023-11-22T11:48:16;2;2;
40371;PMS5003;28564;53.346;-6.554;2023-11-22T11:50:44;1;1;
40371;PMS5003;28564;53.346;-6.554;2023-11-22T11:53:13;1;1;
40371;PMS5003;28564;53.346;-6.554;2023-11-22T11:55:44;2;1;
40371;PMS5003;28564;53.346;-6.554;2023-11-22T11:58:11;1;1;
40371;PMS5003;28564;53.346;-6.554;2023-11-22T12:00:38;0;0;
40371;PMS5003;28564;53.346;-6.554;2023-11-22T12:03:06;1;1;
40371;PMS5003;28564;53.346;-6.554;2023-11-22T12:05:33;0;0;
40371;PMS5003;28564;53.346;-6.554;2023-11-22T12:08:01;3;3;
40371;PMS5003;28564;53.346;-6.554;2023-11-22T12:10:28;4;3;
40371;PMS5003;28564;53.346;-6.554;2023-11-22T12:12:55;5;3;
40371;PMS5003;28564;53.346;-6.554;2023-11-22T12:15:22;2;2;
40371;PMS5003;28564;53.346;-6.554;2023-11-22T12:17:49;1;1;
40371;PMS5003;28564;53.346;-6.554;2023-11-22T12:20:16;1;0;
40371;PMS5003;28564;53.346;-6.554;2023-11-22T12:22:44;0;0;
40371;PMS5003;28564;53.346;-6.554;2023-11-22T12:25:13;0;0;
40371;PMS5003;28564;53.346;-6.554;2023-11-22T12:27:41;1;1;
40371;PMS5003;28564;53.346;-6.554;2023-11-22T12:30:09;0;0;
40371;PMS5003;28564;53.346;-6.554;2023-11-22T12:32:38;1;1;
40371;PMS5003;28564;53.346;-6.554;2023-11-22T12:35:06;1;0;
40371;PMS5003;28564;53.346;-6.554;2023-11-22T12:37:35;1;1;
40371;PMS5003;28564;53.346;-6.554;2023-11-22T12:40:10;1;1;
40371;PMS5003;28564;53.346;-6.554;2023-11-22T12:42:47;0;0;
40371;PMS5003;28564;53.346;-6.554;2023-11-22T12:45:18;2;1;
40371;PMS5003;28564;53.346;-6.554;2023-11-22T12:47:47;2;0;
40371;PMS5003;28564;53.346;-6.554;2023-11-22T12:50:31;2;2;
40371;PMS5003;28564;53.346;-6.554;2023-11-22T12:53:07;2;0;
40371;PMS5003;28564;53.346;-6.554;2023-11-22T12:55:36;1;1;
40371;PMS5003;28564;53.346;-6.554;2023-11-22T12:58:03;2;2;
40371;PMS5003;28564;53.346;-6.554;2023-11-22T13:00:30;1;1;
40371;PMS5003;28564;53.346;-6.554;2023-11-22T13:02:58;0;0;
40371;PMS5003;28564;53.346;-6.554;2023-11-22T13:05:26;2;2;
40371;PMS5003;28564;53.346;-6.554;2023-11-22T13:07:53;2;2;
40371;PMS5003;28564;53.346;-6.554;2023-11-22T13:10:20;1;1;
40371;PMS5003;28564;53.346;-6.554;2023-11-22T13:12:47;2;2;
40371;PMS5003;28564;53.346;-6.554;2023-11-22T13:15:14;1;1;
40371;PMS5003;28564;53.346;-6.554;2023-11-22T13:17:41;3;2;
40371;PMS5003;28564;53.346;-6.554;2023-11-22T13:20:08;1;1;
40371;PMS5003;28564;53.346;-6.554;2023-11-22T13:22:35;1;1;
40371;PMS5003;28564;53.346;-6.554;2023-11-22T13:25:02;1;1;
40371;PMS5003;28564;53.346;-6.554;2023-11-22T13:27:30;3;1;
40371;PMS5003;28564;53.346;-6.554;2023-11-22T13:29:57;0;0;
40371;PMS5003;28564;53.346;-6.554;2023-11-22T13:32:25;1;1;
40371;PMS5003;28564;53.346;-6.554;2023-11-22T13:34:52;3;2;
40371;PMS5003;28564;53.346;-6.554;2023-11-22T13:37:22;2;2;
40371;PMS5003;28564;53.346;-6.554;2023-11-22T13:39:49;1;1;
40371;PMS5003;28564;53.346;-6.554;2023-11-22T13:42:16;2;2;
40371;PMS5003;28564;53.346;-6.554;2023-11-22T13:44:43;3;3;
40371;PMS5003;28564;53.346;-6.554;2023-11-22T13:47:10;3;3;
40371;PMS5003;28564;53.346;-6.554;2023-11-22T13:49:37;4;3;
40371;PMS5003;28564;53.346;-6.554;2023-11-22T13:52:04;1;1;
40371;PMS5003;28564;53.346;-6.554;2023-11-22T13:54:31;1;1;
40371;PMS5003;28564;53.346;-6.554;2023-11-22T13:56:58;1;1;
40371;PMS5003;28564;53.346;-6.554;2023-11-22T13:59:25;1;1;
40371;PMS5003;28564;53.346;-6.554;2023-11-22T14:01:53;3;2;
40371;PMS5003;28564;53.346;-6.554;2023-11-22T14:04:20;1;1;
40371;PMS5003;28564;53.346;-6.554;2023-11-22T14:06:47;1;1;
40371;PMS5003;28564;53.346;-6.554;2023-11-22T14:09:14;2;2;
40371;PMS5003;28564;53.346;-6.554;2023-11-22T14:11:41;1;1;
40371;PMS5003;28564;53.346;-6.554;2023-11-22T14:14:08;1;1;
40371;PMS5003;28564;53.346;-6.554;2023-11-22T14:16:35;3;3;
40371;PMS5003;28564;53.346;-6.554;2023-11-22T14:19:02;4;4;
40371;PMS5003;28564;53.346;-6.554;2023-11-22T14:21:29;3;3;
40371;PMS5003;28564;53.346;-6.554;2023-11-22T14:23:57;6;6;
40371;PMS5003;28564;53.346;-6.554;2023-11-22T14:26:24;7;5;
40371;PMS5003;28564;53.346;-6.554;2023-11-22T14:28:52;4;4;
40371;PMS5003;28564;53.346;-6.554;2023-11-22T14:31:20;6;5;
40371;PMS5003;28564;53.346;-6.554;2023-11-22T14:33:47;6;6;
40371;PMS5003;28564;53.346;-6.554;2023-11-22T14:36:14;6;6;
40371;PMS5003;28564;53.346;-6.554;2023-11-22T14:38:41;6;6;
40371;PMS5003;28564;53.346;-6.554;2023-11-22T14:41:08;6;6;
40371;PMS5003;28564;53.346;-6.554;2023-11-22T14:43:35;7;7;
40371;PMS5003;28564;53.346;-6.554;2023-11-22T14:46:02;5;2;
40371;PMS5003;28564;53.346;-6.554;2023-11-22T14:48:30;6;6;
40371;PMS5003;28564;53.346;-6.554;2023-11-22T14:50:57;7;7;
40371;PMS5003;28564;53.346;-6.554;2023-11-22T14:53:25;6;6;
40371;PMS5003;28564;53.346;-6.554;2023-11-22T14:55:52;7;7;
40371;PMS5003;28564;53.346;-6.554;2023-11-22T14:58:20;7;7;
40371;PMS5003;28564;53.346;-6.554;2023-11-22T15:00:47;9;7;
40371;PMS5003;28564;53.346;-6.554;2023-11-22T15:03:14;9;8;
40371;PMS5003;28564;53.346;-6.554;2023-11-22T15:05:41;11;9;
40371;PMS5003;28564;53.346;-6.554;2023-11-22T15:08:08;10;9;
40371;PMS5003;28564;53.346;-6.554;2023-11-22T15:10:36;10;10;
40371;PMS5003;28564;53.346;-6.554;2023-11-22T15:13:03;6;6;
40371;PMS5003;28564;53.346;-6.554;2023-11-22T15:15:30;9;9;
40371;PMS5003;28564;53.346;-6.554;2023-11-22T15:17:57;8;8;
40371;PMS5003;28564;53.346;-6.554;2023-11-22T15:20:24;11;9;
40371;PMS5003;28564;53.346;-6.554;2023-11-22T15:22:51;12;11;
40371;PMS5003;28564;53.346;-6.554;2023-11-22T15:25:19;10;10;
40371;PMS5003;28564;53.346;-6.554;2023-11-22T15:27:46;9;9;
40371;PMS5003;28564;53.346;-6.554;2023-11-22T15:30:13;10;9;
40371;PMS5003;28564;53.346;-6.554;2023-11-22T15:32:40;9;9;
40371;PMS5003;28564;53.346;-6.554;2023-11-22T15:35:07;10;10;
40371;PMS5003;28564;53.346;-6.554;2023-11-22T15:37:34;11;10;
40371;PMS5003;28564;53.346;-6.554;2023-11-22T15:40:02;11;10;
40371;PMS5003;28564;53.346;-6.554;2023-11-22T15:42:30;10;10;
40371;PMS5003;28564;53.346;-6.554;2023-11-22T15:44:57;8;8;
40371;PMS5003;28564;53.346;-6.554;2023-11-22T15:47:24;9;9;
40371;PMS5003;28564;53.346;-6.554;2023-11-22T15:49:52;7;7;
40371;PMS5003;28564;53.346;-6.554;2023-11-22T15:52:20;7;7;
40371;PMS5003;28564;53.346;-6.554;2023-11-22T15:54:46;8;6;
40371;PMS5003;28564;53.346;-6.554;2023-11-22T15:57:13;5;5;
40371;PMS5003;28564;53.346;-6.554;2023-11-22T15:59:41;4;4;
40371;PMS5003;28564;53.346;-6.554;2023-11-22T16:02:08;4;4;
40371;PMS5003;28564;53.346;-6.554;2023-11-22T16:04:35;2;2;
40371;PMS5003;28564;53.346;-6.554;2023-11-22T16:07:02;3;3;
40371;PMS5003;28564;53.346;-6.554;2023-11-22T16:09:29;5;4;
40371;PMS5003;28564;53.346;-6.554;2023-11-22T16:11:56;5;5;
40371;PMS5003;28564;53.346;-6.554;2023-11-22T16:14:24;4;4;
40371;PMS5003;28564;53.346;-6.554;2023-11-22T16:16:52;6;6;
40371;PMS5003;28564;53.346;-6.554;2023-11-22T16:19:19;9;8;
40371;PMS5003;28564;53.346;-6.554;2023-11-22T16:21:46;8;8;
40371;PMS5003;28564;53.346;-6.554;2023-11-22T16:24:13;9;9;
40371;PMS5003;28564;53.346;-6.554;2023-11-22T16:26:40;10;10;
40371;PMS5003;28564;53.346;-6.554;2023-11-22T16:29:07;9;9;
40371;PMS5003;28564;53.346;-6.554;2023-11-22T16:31:35;9;8;
40371;PMS5003;28564;53.346;-6.554;2023-11-22T16:34:03;8;8;
40371;PMS5003;28564;53.346;-6.554;2023-11-22T16:36:33;8;8;